Aviation Digital Data Service (ADDS)

Output produced by METARs form (0846 UTC 24 July 2016)
found at http://aviationweather.gov/adds/metars/
 
KPHX 240838Z 2409/2506 27008KT P6SM FEW250 
     FM241300 08005KT P6SM FEW120 SCT250 
     FM241700 26011KT P6SM FEW120 SCT250